Airfield :
LOGIN :

Register | Disclaimer

   EN    FR    IT 

 










Legend :    VFR   Marginal VFR   IFR   Intensive IFR   Very Intensive IFR
Visi :
Ceiling :
>= 8 km
>= 3000ft
5 to 8 km
1000 to 3000 ft
1500m to 5 km
500 to 1000 ft
800 to 1500m
200 to 500 ft
< 800m
< 200 ft
Symbols :   Thunderstorms  Fog  Heavy snow  Heavy precipitations  Wind > 20 kt
SIGMETs :     Misc.  Thunderstorms  Icing  Turbulence  Mountain Waves  Volcanic Ashes







- Airport Elevation : 299 ft
- IATA code : EDM
- Download approach charts


LFRI - La Roche Sur Yon - Les Ajoncs

CURRENT METAR :
  • 221200Z AUTO VRB03KT CAVOK 31/14 Q1022 NOSIG

EXPIRED METARs :
  • 221130Z AUTO VRB03KT CAVOK 30/14 Q1022 NOSIG
  • 221100Z AUTO VRB04KT CAVOK 30/14 Q1022 NOSIG
  • 221030Z AUTO 12003KT 040V190 CAVOK 29/13 Q1023 NOSIG
  • 221000Z AUTO VRB03KT CAVOK 28/14 Q1023 NOSIG
  • 220930Z AUTO 10004KT 020V170 CAVOK 27/15 Q1023 NOSIG

TAF TAF LFRI
Valid from the 22 at 12:00 until the 23 at 12:00 UTC


221100Z 2212/2312 VRB03KT CAVOK
No reported NOTAMs for that airfield.



MET'MAP, your aeronautical weather chart ! - Copyright ORBIFLY December 2007 - Disclaimer

ORBIFLY MET'MAP TEAM :

Programming & Development : Alexandra Zaïnal
Concept & Development : Baudouin d'Aumeries
Co-Development & Prog : Marc-Olivier Méhu
Technical & hardware support : Manuel Goepfert

Contact : metmap@orbifly.com




SOURCES & CREDITS :

   NOAA